Time;durP1;ratioP1;P1;durP2;ratioP2;P2;SDS_P1;SDS_P2;PMS_P1;PMS_P2;Temp;Humidity;BMP_temperature;BMP_pressure;BME280_temperature;BME280_humidity;BME280_pressure;Samples;Min_cycle;Max_cycle;Signal;HPM_P1;HPM_P2
2023/01/22 00:00:06;;;;;;;31.48;17.63;;;1.10;99.90;;;;;;4962452;28;19917;-91
2023/01/22 00:02:35;;;;;;;33.83;18.65;;;1.20;99.90;;;;;;4947222;28;20035;-91
2023/01/22 00:05:00;;;;;;;31.20;17.92;;;1.10;99.90;;;;;;4964508;28;20039;-89
2023/01/22 00:07:26;;;;;;;40.17;17.92;;;1.10;99.90;;;;;;4965965;28;20187;-88
2023/01/22 00:09:52;;;;;;;30.83;17.25;;;1.10;99.90;;;;;;4965484;28;20131;-88
2023/01/22 00:12:17;;;;;;;32.25;18.30;;;1.10;99.90;;;;;;4949209;28;20092;-88
2023/01/22 00:14:43;;;;;;;30.25;17.17;;;1.10;99.90;;;;;;4964889;28;20042;-88
2023/01/22 00:17:09;;;;;;;30.30;17.42;;;1.10;99.90;;;;;;4948625;28;20134;-88
2023/01/22 00:19:35;;;;;;;32.33;17.63;;;1.10;99.90;;;;;;4965169;28;20492;-90
2023/01/22 00:22:00;;;;;;;29.30;17.55;;;1.10;99.90;;;;;;4965004;28;20120;-90
2023/01/22 00:24:26;;;;;;;31.15;18.10;;;1.10;99.90;;;;;;4980388;28;20030;-90
2023/01/22 00:26:52;;;;;;;31.52;18.08;;;1.10;99.90;;;;;;4949749;28;20045;-90
2023/01/22 00:29:17;;;;;;;30.02;18.20;;;1.00;99.90;;;;;;4950355;28;20065;-90
2023/01/22 00:31:43;;;;;;;29.90;17.80;;;1.00;99.90;;;;;;4964644;28;20045;-91
2023/01/22 00:34:09;;;;;;;34.00;18.45;;;1.10;99.90;;;;;;4949283;28;20030;-92
2023/01/22 00:36:34;;;;;;;30.63;17.33;;;1.00;99.90;;;;;;4949459;28;20396;-93
2023/01/22 00:39:00;;;;;;;29.65;17.50;;;1.00;99.90;;;;;;4965544;28;20042;-93
2023/01/22 00:41:26;;;;;;;31.48;18.15;;;1.00;99.90;;;;;;4965913;28;20085;-90
2023/01/22 00:43:52;;;;;;;31.98;16.65;;;1.00;99.90;;;;;;4965395;28;20126;-90
2023/01/22 00:46:18;;;;;;;31.40;17.40;;;1.00;99.90;;;;;;4948886;28;20069;-90
2023/01/22 00:48:48;;;;;;;29.92;17.40;;;1.00;99.90;;;;;;4949124;28;20046;-90
2023/01/22 00:51:14;;;;;;;29.42;16.80;;;1.00;99.90;;;;;;4965443;28;20042;-90
2023/01/22 00:53:41;;;;;;;32.00;17.35;;;1.00;99.90;;;;;;4965417;28;20053;-91
2023/01/22 00:56:07;;;;;;;30.88;18.08;;;1.00;99.90;;;;;;4981054;28;20081;-91
2023/01/22 00:58:33;;;;;;;32.80;17.23;;;1.00;99.90;;;;;;4981007;28;20041;-91
2023/01/22 01:01:02;;;;;;;27.77;16.40;;;0.90;99.90;;;;;;4980735;28;20037;-92
2023/01/22 01:03:31;;;;;;;27.52;16.52;;;1.00;99.90;;;;;;4965071;28;20034;-90
2023/01/22 01:05:56;;;;;;;28.77;16.20;;;1.00;99.90;;;;;;4965788;28;20365;-91
2023/01/22 01:08:23;;;;;;;29.70;16.95;;;1.00;99.90;;;;;;4980242;28;20125;-88
2023/01/22 01:10:57;;;;;;;33.45;17.38;;;1.00;99.90;;;;;;4948050;28;20035;-87
2023/01/22 01:13:23;;;;;;;28.95;16.92;;;0.90;99.90;;;;;;4980638;28;20033;-91
2023/01/22 01:15:49;;;;;;;33.83;17.27;;;1.00;99.90;;;;;;4980121;28;20031;-94
2023/01/22 01:18:16;;;;;;;28.27;16.15;;;1.00;99.90;;;;;;4964385;28;20121;-92
2023/01/22 01:20:41;;;;;;;30.92;16.70;;;1.00;99.90;;;;;;4980043;28;20388;-94
2023/01/22 01:23:07;;;;;;;29.98;15.90;;;1.00;99.90;;;;;;4979829;28;20053;-92
2023/01/22 01:25:33;;;;;;;28.05;15.45;;;0.90;99.90;;;;;;4980994;28;20034;-90
2023/01/22 01:27:59;;;;;;;30.42;16.73;;;0.90;99.90;;;;;;4948564;28;20053;-90
2023/01/22 01:30:25;;;;;;;28.88;16.00;;;0.90;99.90;;;;;;4979402;28;20481;-91
2023/01/22 01:32:50;;;;;;;28.88;16.15;;;0.90;99.90;;;;;;4980889;28;20129;-91
2023/01/22 01:35:16;;;;;;;26.80;15.48;;;1.00;99.90;;;;;;4964679;28;20030;-92
2023/01/22 01:37:42;;;;;;;29.58;16.45;;;0.90;99.90;;;;;;4948224;28;20057;-91
2023/01/22 01:40:08;;;;;;;27.60;15.73;;;0.90;99.90;;;;;;4964291;28;20039;-91
2023/01/22 01:46:24;;;;;;;25.73;15.57;;;0.90;99.90;;;;;;4893868;29;20036;-90
2023/01/22 01:48:53;;;;;;;24.80;15.60;;;0.90;99.90;;;;;;4921631;29;20581;-90
2023/01/22 01:51:30;;;;;;;27.30;15.48;;;0.90;99.90;;;;;;4966806;28;20073;-90
2023/01/22 01:53:58;;;;;;;28.25;15.15;;;0.90;99.90;;;;;;4979675;28;20039;-90
2023/01/22 01:56:38;;;;;;;25.30;14.85;;;1.00;99.90;;;;;;4963931;28;20033;-90
2023/01/22 01:59:09;;;;;;;29.10;15.57;;;0.90;99.90;;;;;;4979517;28;20042;-88
2023/01/22 02:01:35;;;;;;;26.40;15.30;;;0.90;99.90;;;;;;4979419;28;20041;-87
2023/01/22 02:04:02;;;;;;;24.85;15.10;;;0.90;99.90;;;;;;4979588;28;20054;-88
2023/01/22 02:06:30;;;;;;;23.98;14.98;;;0.90;99.90;;;;;;4947267;28;20035;-88
2023/01/22 02:08:59;;;;;;;26.48;15.32;;;0.90;99.90;;;;;;4963164;28;20042;-89
2023/01/22 02:11:26;;;;;;;25.90;14.77;;;1.00;99.90;;;;;;4962485;28;20039;-88
2023/01/22 02:13:58;;;;;;;25.35;14.90;;;0.90;99.90;;;;;;4962861;28;20046;-88
2023/01/22 02:16:24;;;;;;;25.30;14.43;;;0.90;99.90;;;;;;4979759;28;20030;-93
2023/01/22 02:18:50;;;;;;;24.58;14.05;;;0.90;99.90;;;;;;4978460;28;20046;-93
2023/01/22 02:21:38;;;;;;;24.10;14.45;;;0.90;99.90;;;;;;4979525;28;20030;-93
2023/01/22 02:24:15;;;;;;;29.58;13.75;;;0.90;99.90;;;;;;4978651;28;20041;-93
2023/01/22 02:26:43;;;;;;;24.67;14.57;;;0.90;99.90;;;;;;4978277;28;20110;-92
2023/01/22 02:29:11;;;;;;;26.40;13.65;;;0.90;99.90;;;;;;4962405;28;20049;-92
2023/01/22 02:31:38;;;;;;;25.08;14.57;;;0.90;99.90;;;;;;4947864;28;20141;-93
2023/01/22 02:34:04;;;;;;;22.23;13.25;;;0.90;99.90;;;;;;4979031;28;20030;-90
2023/01/22 02:36:32;;;;;;;23.48;13.63;;;0.90;99.90;;;;;;4978019;28;20419;-88
2023/01/22 02:38:58;;;;;;;25.15;14.07;;;1.00;99.90;;;;;;4978965;28;20547;-90
2023/01/22 02:41:24;;;;;;;21.48;12.25;;;1.00;99.90;;;;;;4946982;28;20070;-89
2023/01/22 02:43:50;;;;;;;29.33;13.60;;;1.00;99.90;;;;;;4962912;28;20035;-90
2023/01/22 02:46:16;;;;;;;21.73;12.93;;;1.00;99.90;;;;;;4962892;28;20498;-90
2023/01/22 02:48:42;;;;;;;22.48;12.85;;;1.00;99.90;;;;;;4962474;28;20376;-88
2023/01/22 02:51:07;;;;;;;24.23;13.38;;;1.10;99.90;;;;;;4946475;28;20038;-90
2023/01/22 02:53:33;;;;;;;22.80;12.32;;;1.10;99.90;;;;;;4947281;28;20045;-90
2023/01/22 02:55:59;;;;;;;22.48;12.73;;;1.10;99.90;;;;;;4946913;28;20092;-90
2023/01/22 02:58:25;;;;;;;24.38;13.00;;;1.20;99.90;;;;;;4962885;28;20038;-90
2023/01/22 03:00:50;;;;;;;22.75;12.65;;;1.20;99.90;;;;;;4962951;28;20491;-91
2023/01/22 03:03:16;;;;;;;20.90;12.23;;;1.20;99.90;;;;;;4963153;28;20498;-91
2023/01/22 03:05:51;;;;;;;22.73;12.65;;;1.20;99.90;;;;;;4978318;28;20093;-94
2023/01/22 03:08:18;;;;;;;23.58;13.75;;;1.20;99.90;;;;;;4978707;28;20046;-91
2023/01/22 03:10:45;;;;;;;23.55;13.95;;;1.20;99.90;;;;;;4963318;28;20451;-91
2023/01/22 03:21:24;;;;;;;23.10;13.43;;;1.20;99.90;;;;;;4982015;28;20042;-91
2023/01/22 03:23:54;;;;;;;25.75;14.25;;;1.20;99.90;;;;;;4946721;28;20043;-90
2023/01/22 03:26:21;;;;;;;20.80;12.90;;;1.20;99.90;;;;;;4978355;28;20036;-91
2023/01/22 03:28:48;;;;;;;23.90;13.70;;;1.20;99.90;;;;;;4962651;28;20086;-88
2023/01/22 03:31:14;;;;;;;23.33;13.23;;;1.20;99.90;;;;;;4962251;28;20035;-88
2023/01/22 03:33:41;;;;;;;23.13;14.23;;;1.20;99.90;;;;;;4962462;28;20054;-87
2023/01/22 03:36:10;;;;;;;25.77;12.98;;;1.20;99.90;;;;;;4961908;28;20100;-87
2023/01/22 03:38:35;;;;;;;24.13;13.60;;;1.20;99.90;;;;;;4980096;28;20038;-90
2023/01/22 03:41:07;;;;;;;22.98;12.90;;;1.20;99.90;;;;;;4962764;28;20052;-92
2023/01/22 03:43:34;;;;;;;21.48;12.93;;;1.20;99.90;;;;;;5004114;28;20025;-93
2023/01/22 03:46:11;;;;;;;25.83;13.40;;;1.20;99.90;;;;;;5004600;28;20030;-94
2023/01/22 03:48:37;;;;;;;30.25;14.52;;;1.30;99.90;;;;;;5001980;28;20041;-92
2023/01/22 03:51:12;;;;;;;22.95;13.65;;;1.30;99.90;;;;;;5003455;28;20124;-94
2023/01/22 03:53:38;;;;;;;22.45;13.27;;;1.30;99.90;;;;;;5001929;28;20034;-92
2023/01/22 03:56:16;;;;;;;25.58;13.90;;;1.30;99.90;;;;;;4985174;28;20045;-87
2023/01/22 03:58:41;;;;;;;22.17;13.55;;;1.30;99.90;;;;;;5001093;28;20082;-88
2023/01/22 04:01:19;;;;;;;25.30;13.63;;;1.30;99.90;;;;;;4984355;28;20030;-87
2023/01/22 04:03:45;;;;;;;23.75;13.75;;;1.40;99.90;;;;;;5000805;28;20033;-88
2023/01/22 04:06:12;;;;;;;24.80;13.90;;;1.40;99.90;;;;;;5000957;28;20038;-88
2023/01/22 04:08:39;;;;;;;24.05;13.20;;;1.40;99.90;;;;;;5000734;28;20030;-88
2023/01/22 04:11:05;;;;;;;22.50;13.15;;;1.30;99.90;;;;;;5000164;28;20553;-92
2023/01/22 04:13:33;;;;;;;23.00;13.93;;;1.40;99.90;;;;;;4981832;28;20057;-92
2023/01/22 04:15:58;;;;;;;23.80;13.55;;;1.40;99.90;;;;;;5021537;28;20466;-93
2023/01/22 04:18:24;;;;;;;21.67;13.02;;;1.40;99.90;;;;;;5001722;28;20117;-92
2023/01/22 04:20:51;;;;;;;25.38;13.98;;;1.40;99.90;;;;;;4985019;28;20038;-93
2023/01/22 04:23:18;;;;;;;21.95;13.32;;;1.40;99.90;;;;;;4985077;28;20041;-90
2023/01/22 04:25:44;;;;;;;24.23;14.60;;;1.40;99.90;;;;;;5001035;28;20026;-89
2023/01/22 04:28:10;;;;;;;22.38;14.15;;;1.50;99.90;;;;;;4984968;28;20042;-90
2023/01/22 04:30:37;;;;;;;24.33;14.38;;;1.50;99.90;;;;;;4984952;28;20042;-90
2023/01/22 04:33:03;;;;;;;22.40;13.90;;;1.50;99.90;;;;;;5000872;28;20034;-90
2023/01/22 04:35:29;;;;;;;23.60;14.02;;;1.50;99.90;;;;;;4984816;28;20034;-90
2023/01/22 04:37:55;;;;;;;23.40;13.80;;;1.50;99.90;;;;;;4968685;28;20034;-90
2023/01/22 04:40:21;;;;;;;25.08;15.15;;;1.50;99.90;;;;;;4984701;28;20042;-90
2023/01/22 04:42:50;;;;;;;22.45;14.60;;;1.50;99.90;;;;;;4983684;28;20034;-89
2023/01/22 04:45:16;;;;;;;24.52;14.60;;;1.50;99.90;;;;;;5001854;28;20446;-93
2023/01/22 04:47:43;;;;;;;24.92;15.43;;;1.50;99.90;;;;;;5000162;28;20034;-92
2023/01/22 04:50:15;;;;;;;23.98;14.45;;;1.50;99.90;;;;;;4980552;28;20038;-93
2023/01/22 04:52:40;;;;;;;23.92;14.93;;;1.50;99.90;;;;;;4981642;28;20133;-92
2023/01/22 04:55:07;;;;;;;26.75;14.63;;;1.50;99.90;;;;;;4965403;28;20061;-92
2023/01/22 04:57:32;;;;;;;25.92;14.95;;;1.50;99.90;;;;;;4965182;28;20093;-93
2023/01/22 05:00:02;;;;;;;27.98;15.80;;;1.50;99.90;;;;;;4948738;28;20035;-92
2023/01/22 05:02:27;;;;;;;25.88;14.50;;;1.50;99.90;;;;;;4965528;28;20631;-91
2023/01/22 05:04:53;;;;;;;22.63;14.15;;;1.50;99.90;;;;;;4949106;28;20070;-90
2023/01/22 05:07:19;;;;;;;24.73;14.35;;;1.60;99.90;;;;;;4948172;28;20066;-92
2023/01/22 05:09:45;;;;;;;28.65;14.75;;;1.60;99.90;;;;;;4981123;28;20141;-92
2023/01/22 05:12:10;;;;;;;25.10;15.00;;;1.60;99.90;;;;;;4964409;28;20050;-87
2023/01/22 05:14:36;;;;;;;23.02;13.65;;;1.50;99.90;;;;;;4996468;28;20479;-87
2023/01/22 05:17:01;;;;;;;23.52;15.00;;;1.50;99.90;;;;;;4947480;28;20129;-86
2023/01/22 05:19:27;;;;;;;25.58;14.82;;;1.60;99.90;;;;;;4948537;28;20487;-91
2023/01/22 05:21:53;;;;;;;24.35;14.52;;;1.60;99.90;;;;;;4964433;28;20034;-91
2023/01/22 05:24:18;;;;;;;24.35;14.07;;;1.60;99.90;;;;;;4948644;28;20381;-90
2023/01/22 05:26:44;;;;;;;24.63;15.38;;;1.50;99.90;;;;;;4980694;28;20105;-91
2023/01/22 05:29:10;;;;;;;23.45;14.23;;;1.60;99.90;;;;;;4964317;28;20395;-90
2023/01/22 05:31:36;;;;;;;25.30;14.40;;;1.60;99.90;;;;;;4980426;28;20042;-91
2023/01/22 05:34:02;;;;;;;23.95;14.77;;;1.60;99.90;;;;;;4980521;28;20038;-89
2023/01/22 05:36:28;;;;;;;22.15;14.55;;;1.60;99.90;;;;;;4980249;28;20390;-89
2023/01/22 05:38:54;;;;;;;21.08;13.48;;;1.50;99.90;;;;;;4964848;28;20034;-89
2023/01/22 05:41:20;;;;;;;25.35;14.30;;;1.50;99.90;;;;;;4980357;28;20034;-89
2023/01/22 05:43:46;;;;;;;23.00;14.65;;;1.60;99.90;;;;;;4996206;28;20384;-89
2023/01/22 05:46:11;;;;;;;23.83;14.93;;;1.60;99.90;;;;;;4996499;28;20543;-89
2023/01/22 05:48:37;;;;;;;20.92;13.75;;;1.60;99.90;;;;;;4981160;28;20496;-89
2023/01/22 05:51:05;;;;;;;25.00;15.30;;;1.60;99.90;;;;;;4999536;28;20520;-89
2023/01/22 05:53:32;;;;;;;26.20;14.57;;;1.60;99.90;;;;;;4967420;28;20045;-90
2023/01/22 05:56:02;;;;;;;23.40;14.10;;;1.60;99.90;;;;;;4999207;28;20033;-89
2023/01/22 05:58:28;;;;;;;22.05;14.65;;;1.60;99.90;;;;;;5016792;28;20034;-89
2023/01/22 06:00:54;;;;;;;22.67;14.38;;;1.60;99.90;;;;;;4982936;28;20069;-89
2023/01/22 06:03:20;;;;;;;24.42;14.07;;;1.60;99.90;;;;;;4999219;28;20037;-90
2023/01/22 06:05:45;;;;;;;22.05;13.90;;;1.60;99.90;;;;;;4999578;28;20073;-89
2023/01/22 06:08:11;;;;;;;21.70;14.65;;;1.60;99.90;;;;;;4999518;28;20022;-88
2023/01/22 06:10:37;;;;;;;25.38;14.13;;;1.60;99.90;;;;;;4998213;28;20042;-88
2023/01/22 06:13:03;;;;;;;21.42;13.82;;;1.60;99.90;;;;;;4982037;28;20112;-87
2023/01/22 06:15:28;;;;;;;21.90;13.00;;;1.60;99.90;;;;;;4966224;28;20383;-87
2023/01/22 06:18:00;;;;;;;21.92;13.10;;;1.60;99.90;;;;;;4966138;28;20038;-88
2023/01/22 06:20:26;;;;;;;22.25;13.80;;;1.60;99.90;;;;;;4998483;28;20042;-88
2023/01/22 06:22:51;;;;;;;21.83;13.82;;;1.60;99.90;;;;;;4982160;28;20041;-87
2023/01/22 06:25:17;;;;;;;23.58;13.35;;;1.60;99.90;;;;;;4983517;28;20088;-90
2023/01/22 06:27:44;;;;;;;23.98;13.63;;;1.60;99.90;;;;;;4983008;28;20038;-91
2023/01/22 06:30:10;;;;;;;24.23;13.63;;;1.60;99.90;;;;;;4999179;28;20033;-92
2023/01/22 06:32:36;;;;;;;21.05;13.68;;;1.60;99.90;;;;;;4983096;28;20037;-93
2023/01/22 06:35:02;;;;;;;22.48;13.25;;;1.60;99.90;;;;;;4982974;28;20102;-93
2023/01/22 06:37:27;;;;;;;18.55;12.10;;;1.60;99.90;;;;;;4982575;28;20129;-92
2023/01/22 06:39:53;;;;;;;21.98;13.18;;;1.60;99.90;;;;;;4965762;28;20026;-92
2023/01/22 06:42:19;;;;;;;23.90;13.75;;;1.60;99.90;;;;;;4966682;28;20083;-87
2023/01/22 06:44:44;;;;;;;19.63;12.80;;;1.60;99.90;;;;;;4965790;28;20061;-88
2023/01/22 06:47:10;;;;;;;20.88;12.50;;;1.60;99.90;;;;;;4965933;28;20120;-88
2023/01/22 06:49:36;;;;;;;18.20;12.10;;;1.60;99.90;;;;;;4960562;28;20066;-92
2023/01/22 06:52:06;;;;;;;17.13;12.13;;;1.60;99.90;;;;;;4962430;28;20085;-92
2023/01/22 06:54:31;;;;;;;19.73;12.60;;;1.60;99.90;;;;;;4978378;28;20026;-91
2023/01/22 06:56:57;;;;;;;18.52;11.88;;;1.60;99.90;;;;;;4962921;28;20167;-93
2023/01/22 06:59:23;;;;;;;18.50;11.98;;;1.60;99.90;;;;;;4965423;28;20039;-91
2023/01/22 07:01:48;;;;;;;20.20;11.60;;;1.60;99.90;;;;;;4963182;28;20041;-90
2023/01/22 07:04:14;;;;;;;18.88;11.25;;;1.60;99.90;;;;;;4963072;28;20034;-90
2023/01/22 07:06:40;;;;;;;21.35;11.48;;;1.60;99.90;;;;;;4979211;28;20038;-91
2023/01/22 07:09:06;;;;;;;17.40;11.65;;;1.60;99.90;;;;;;4979133;28;20110;-92
2023/01/22 07:11:31;;;;;;;16.45;11.02;;;1.60;99.90;;;;;;4963120;28;20884;-92
2023/01/22 07:13:57;;;;;;;15.48;10.77;;;1.70;99.90;;;;;;4962676;28;20123;-93
2023/01/22 07:16:23;;;;;;;18.73;11.15;;;1.60;99.90;;;;;;4962335;28;20065;-87
2023/01/22 07:18:48;;;;;;;15.63;9.73;;;1.60;99.90;;;;;;4946090;28;20049;-88
2023/01/22 07:21:14;;;;;;;17.63;10.73;;;1.60;99.90;;;;;;4962029;28;20042;-88
2023/01/22 07:23:41;;;;;;;13.75;9.55;;;1.60;99.90;;;;;;4962064;28;20388;-88
2023/01/22 07:26:07;;;;;;;16.42;10.55;;;1.60;99.90;;;;;;4977952;28;20031;-87
2023/01/22 07:28:33;;;;;;;16.50;10.35;;;1.60;99.90;;;;;;4977826;28;20026;-87
2023/01/22 07:30:58;;;;;;;17.70;9.68;;;1.60;99.90;;;;;;4947283;28;20066;-90
2023/01/22 07:33:24;;;;;;;18.58;9.73;;;1.60;99.90;;;;;;4961826;28;20041;-90
2023/01/22 07:35:56;;;;;;;15.65;9.70;;;1.60;99.90;;;;;;4978531;28;20373;-92
2023/01/22 07:38:25;;;;;;;16.85;10.18;;;1.60;99.90;;;;;;4962678;28;20097;-94
2023/01/22 07:40:50;;;;;;;17.25;9.13;;;1.60;99.90;;;;;;4983850;28;20038;-92
2023/01/22 07:43:16;;;;;;;16.73;10.43;;;1.60;99.90;;;;;;4962831;28;20504;-92
2023/01/22 07:45:42;;;;;;;18.88;10.02;;;1.60;99.90;;;;;;4978745;28;20498;-92
2023/01/22 07:48:10;;;;;;;15.18;10.18;;;1.60;99.90;;;;;;4963405;28;20398;-91
2023/01/22 07:50:38;;;;;;;23.10;12.23;;;1.60;99.90;;;;;;4977445;28;20058;-91
2023/01/22 07:53:05;;;;;;;16.88;10.75;;;1.60;99.90;;;;;;4997897;28;20034;-91
2023/01/22 07:55:31;;;;;;;15.40;9.70;;;1.60;99.90;;;;;;4997755;28;20037;-90
2023/01/22 07:58:02;;;;;;;16.35;10.40;;;1.60;99.90;;;;;;4982142;28;20462;-91
2023/01/22 08:00:28;;;;;;;15.23;9.60;;;1.60;99.90;;;;;;4998536;28;20447;-91
2023/01/22 08:02:54;;;;;;;16.60;9.98;;;1.60;99.90;;;;;;5001308;28;20096;-92
2023/01/22 08:05:20;;;;;;;15.05;9.55;;;1.60;99.90;;;;;;5026836;28;20022;-93
2023/01/22 08:07:46;;;;;;;15.38;9.48;;;1.60;99.90;;;;;;5035622;28;20014;-92
2023/01/22 08:10:14;;;;;;;17.95;9.68;;;1.60;99.90;;;;;;5003432;28;20018;-93
2023/01/22 08:12:41;;;;;;;16.77;9.48;;;1.60;99.90;;;;;;5005237;28;20049;-91
2023/01/22 08:15:07;;;;;;;17.58;10.32;;;1.60;99.90;;;;;;4988930;28;20045;-94
2023/01/22 08:17:33;;;;;;;16.65;10.07;;;1.60;99.90;;;;;;4968588;28;20507;-90
2023/01/22 08:19:59;;;;;;;15.48;10.02;;;1.60;99.90;;;;;;4991339;28;20041;-91
2023/01/22 08:22:24;;;;;;;14.02;9.77;;;1.60;99.90;;;;;;5002772;28;20053;-93
2023/01/22 08:24:50;;;;;;;16.20;9.75;;;1.60;99.90;;;;;;4966928;28;20041;-94
2023/01/22 08:27:20;;;;;;;16.48;9.85;;;1.60;99.90;;;;;;4976632;28;20061;-93
2023/01/22 08:29:46;;;;;;;16.05;9.65;;;1.70;99.90;;;;;;5016706;28;20024;-90
2023/01/22 08:32:12;;;;;;;15.90;10.50;;;1.60;99.90;;;;;;4996870;28;20529;-90
2023/01/22 08:34:37;;;;;;;15.95;10.63;;;1.60;99.90;;;;;;4985363;28;20121;-89
2023/01/22 08:37:03;;;;;;;15.02;9.50;;;1.70;99.90;;;;;;4969459;28;20030;-90
2023/01/22 08:39:29;;;;;;;18.17;10.90;;;1.70;99.90;;;;;;5000314;28;20044;-90
2023/01/22 08:41:56;;;;;;;12.77;9.15;;;1.70;99.90;;;;;;4984556;28;20034;-90
2023/01/22 08:44:23;;;;;;;15.25;9.35;;;1.80;99.90;;;;;;5000688;28;20030;-90
2023/01/22 08:46:49;;;;;;;15.07;9.15;;;1.70;99.90;;;;;;4985957;28;20038;-90
2023/01/22 08:49:14;;;;;;;16.55;9.77;;;1.70;99.90;;;;;;5001668;28;20120;-90
2023/01/22 08:51:40;;;;;;;13.00;8.60;;;1.70;99.90;;;;;;4985846;28;20495;-90
2023/01/22 08:54:06;;;;;;;13.65;9.23;;;1.70;99.90;;;;;;4985302;28;20042;-89
2023/01/22 08:56:32;;;;;;;12.70;8.63;;;1.80;99.90;;;;;;4984942;28;20089;-88
2023/01/22 08:58:59;;;;;;;14.25;9.45;;;1.80;99.90;;;;;;5000224;28;20510;-89
2023/01/22 09:01:25;;;;;;;12.93;8.95;;;1.80;99.90;;;;;;4968109;28;20038;-88
2023/01/22 09:03:51;;;;;;;13.77;9.73;;;1.80;99.90;;;;;;4983393;28;20057;-88
2023/01/22 09:06:17;;;;;;;13.73;9.13;;;1.80;99.90;;;;;;4983962;28;20483;-88
2023/01/22 09:08:46;;;;;;;15.23;9.20;;;1.80;99.90;;;;;;5000186;28;20033;-89
2023/01/22 09:11:11;;;;;;;14.65;8.50;;;1.80;99.90;;;;;;5000142;28;20124;-90
2023/01/22 09:13:37;;;;;;;12.13;8.55;;;1.80;99.90;;;;;;5000176;28;20105;-90
2023/01/22 09:16:04;;;;;;;14.02;10.30;;;1.80;99.90;;;;;;4968166;28;20041;-88
2023/01/22 09:18:30;;;;;;;13.18;8.55;;;1.80;99.90;;;;;;5001783;28;20041;-89
2023/01/22 09:20:58;;;;;;;14.52;9.15;;;1.90;99.90;;;;;;4969786;28;20038;-88
2023/01/22 09:23:24;;;;;;;12.90;8.75;;;1.80;99.90;;;;;;4984980;28;20036;-88
2023/01/22 09:25:50;;;;;;;15.93;8.13;;;1.90;99.90;;;;;;5000898;28;20061;-88
2023/01/22 09:28:15;;;;;;;15.93;8.65;;;1.90;99.90;;;;;;5000593;28;20026;-91
2023/01/22 09:30:43;;;;;;;12.57;8.73;;;1.90;99.90;;;;;;4968002;28;20042;-91
2023/01/22 09:33:08;;;;;;;15.07;8.73;;;1.90;99.90;;;;;;4984173;28;20049;-91
2023/01/22 09:35:34;;;;;;;12.45;8.30;;;1.90;99.90;;;;;;4999985;28;20030;-91
2023/01/22 09:38:02;;;;;;;14.40;9.18;;;1.90;99.90;;;;;;5000021;28;20483;-91
2023/01/22 09:40:50;;;;;;;13.50;8.52;;;2.00;99.90;;;;;;4968302;28;20045;-91
2023/01/22 09:43:36;;;;;;;14.55;9.00;;;2.00;99.90;;;;;;4999941;28;20030;-91
2023/01/22 09:46:08;;;;;;;12.45;8.73;;;1.90;99.90;;;;;;4999869;28;20038;-91
2023/01/22 09:48:40;;;;;;;12.68;9.15;;;1.90;99.90;;;;;;5000204;28;20537;-91
2023/01/22 09:51:06;;;;;;;13.45;8.48;;;2.00;99.90;;;;;;4999187;28;20046;-90
2023/01/22 09:53:32;;;;;;;11.85;8.23;;;2.00;99.90;;;;;;4983001;28;20037;-88
2023/01/22 09:55:59;;;;;;;14.10;7.90;;;2.00;99.90;;;;;;4984451;28;20038;-89
2023/01/22 09:58:27;;;;;;;11.82;7.78;;;2.00;99.90;;;;;;5018466;28;20120;-88
2023/01/22 10:00:56;;;;;;;13.07;8.65;;;2.00;99.90;;;;;;5018519;28;20029;-92
2023/01/22 10:03:31;;;;;;;16.65;7.97;;;2.00;99.90;;;;;;5019483;28;20022;-92
2023/01/22 10:06:14;;;;;;;14.40;8.65;;;2.00;99.90;;;;;;5019763;28;20096;-91
2023/01/22 10:09:00;;;;;;;14.48;8.90;;;2.10;99.90;;;;;;5019043;28;20030;-94
2023/01/22 10:11:26;;;;;;;13.38;8.90;;;2.00;99.90;;;;;;5036469;28;20386;-92
2023/01/22 10:13:56;;;;;;;14.68;8.65;;;2.00;99.90;;;;;;5002905;28;20033;-93
2023/01/22 10:16:22;;;;;;;17.13;8.90;;;2.00;99.90;;;;;;5020505;28;20029;-92
2023/01/22 10:19:18;;;;;;;11.75;8.65;;;2.10;99.90;;;;;;5018753;28;20452;-88
2023/01/22 10:21:47;;;;;;;11.93;7.78;;;2.10;99.90;;;;;;5018784;28;20045;-88
2023/01/22 10:24:13;;;;;;;13.20;8.35;;;2.10;99.90;;;;;;5018472;28;20021;-88
2023/01/22 10:26:47;;;;;;;12.82;8.30;;;2.10;99.90;;;;;;5002089;28;20052;-89
2023/01/22 10:29:35;;;;;;;13.43;8.98;;;2.10;99.90;;;;;;5018492;28;20038;-89
2023/01/22 10:32:27;;;;;;;11.88;8.00;;;2.10;99.90;;;;;;5019465;28;20475;-90
2023/01/22 10:35:01;;;;;;;13.55;8.38;;;2.10;99.90;;;;;;5020301;28;20033;-89
2023/01/22 10:37:28;;;;;;;15.27;9.43;;;2.10;99.90;;;;;;5021153;28;20056;-89
2023/01/22 10:39:58;;;;;;;13.43;9.27;;;2.10;99.90;;;;;;5002517;28;20030;-88
2023/01/22 10:42:27;;;;;;;14.02;8.65;;;2.10;99.90;;;;;;5001718;28;20061;-89
2023/01/22 10:45:17;;;;;;;13.07;8.60;;;2.20;99.90;;;;;;5018964;28;20124;-94
2023/01/22 10:47:43;;;;;;;14.70;9.38;;;2.20;99.90;;;;;;5017803;28;20060;-92
2023/01/22 10:50:14;;;;;;;13.35;8.38;;;2.20;99.90;;;;;;5001263;28;20053;-92
2023/01/22 10:52:55;;;;;;;;;;;2.20;99.90;;;;;;5003318;28;20041;-91
2023/01/22 10:55:23;;;;;;;19.85;8.45;;;2.20;99.90;;;;;;5018802;28;19956;-91
2023/01/22 10:57:55;;;;;;;18.00;9.82;;;2.10;99.90;;;;;;5019034;28;20124;-91
2023/01/22 11:00:37;;;;;;;13.13;8.77;;;2.10;99.90;;;;;;5018906;28;20048;-89
2023/01/22 11:03:28;;;;;;;14.30;8.95;;;2.20;99.90;;;;;;5019109;28;20029;-89
2023/01/22 11:06:15;;;;;;;14.53;9.10;;;2.20;99.90;;;;;;5018310;28;20029;-91
2023/01/22 11:09:04;;;;;;;13.00;8.98;;;2.20;99.90;;;;;;5017874;28;20079;-89
2023/01/22 11:11:42;;;;;;;15.95;9.20;;;2.20;99.90;;;;;;5018635;28;20025;-89
2023/01/22 11:14:16;;;;;;;14.25;9.02;;;2.20;99.90;;;;;;5018188;28;20048;-88
2023/01/22 11:16:42;;;;;;;13.45;8.95;;;2.20;99.90;;;;;;5018080;28;20141;-88
2023/01/22 11:19:13;;;;;;;15.82;9.57;;;2.20;99.90;;;;;;5001283;28;20060;-88
2023/01/22 11:21:46;;;;;;;15.45;10.02;;;2.20;99.90;;;;;;5001132;28;20040;-88
2023/01/22 11:24:45;;;;;;;16.25;9.85;;;2.20;99.90;;;;;;5016905;28;20036;-88
2023/01/22 11:27:24;;;;;;;15.80;10.10;;;2.30;99.90;;;;;;5017969;28;20034;-88
2023/01/22 11:30:13;;;;;;;16.40;9.70;;;2.30;99.90;;;;;;5017496;28;20044;-89
2023/01/22 11:33:04;;;;;;;14.02;8.32;;;2.30;99.90;;;;;;5007195;28;20033;-88
2023/01/22 11:35:33;;;;;;;14.88;8.52;;;2.30;99.90;;;;;;5021432;28;20017;-91
2023/01/22 11:38:12;;;;;;;14.73;9.35;;;2.30;99.90;;;;;;5038381;28;20057;-91
2023/01/22 11:41:17;;;;;;;14.98;8.98;;;2.30;99.90;;;;;;5038679;28;20029;-91
2023/01/22 11:43:57;;;;;;;14.32;9.05;;;2.30;99.90;;;;;;4962759;28;20075;-88
2023/01/22 11:46:31;;;;;;;16.00;9.38;;;2.30;99.90;;;;;;4997220;28;20023;-88
2023/01/22 11:49:29;;;;;;;17.40;9.52;;;2.30;99.90;;;;;;5020785;28;20018;-89
2023/01/22 11:52:26;;;;;;;12.05;8.07;;;2.30;99.90;;;;;;5001193;28;20038;-89
2023/01/22 11:55:12;;;;;;;16.73;9.65;;;2.30;99.90;;;;;;5007933;28;20067;-89
2023/01/22 11:57:45;;;;;;;14.30;8.95;;;2.30;99.90;;;;;;4964361;28;20030;-91
2023/01/22 12:00:40;;;;;;;14.90;9.57;;;2.30;99.90;;;;;;4979236;28;20042;-91
2023/01/22 12:03:36;;;;;;;14.90;9.50;;;2.30;99.90;;;;;;4985985;28;20469;-91
2023/01/22 12:06:38;;;;;;;16.65;10.00;;;2.30;99.90;;;;;;4981229;28;20037;-91
2023/01/22 12:09:09;;;;;;;14.52;9.73;;;2.30;99.90;;;;;;4997942;28;20042;-91
2023/01/22 12:12:09;;;;;;;14.05;9.30;;;2.40;99.90;;;;;;4998499;28;20045;-91
2023/01/22 12:14:54;;;;;;;15.80;9.48;;;2.30;99.90;;;;;;4982494;28;20471;-91
2023/01/22 12:17:54;;;;;;;14.45;10.38;;;2.30;99.90;;;;;;4981261;28;20050;-91
2023/01/22 12:20:44;;;;;;;15.95;9.70;;;2.40;99.90;;;;;;4998056;28;20030;-91
2023/01/22 12:23:52;;;;;;;16.73;9.50;;;2.40;99.90;;;;;;4982840;28;20057;-91
2023/01/22 12:26:30;;;;;;;12.65;9.15;;;2.40;99.90;;;;;;4979312;28;20041;-91
2023/01/22 12:29:16;;;;;;;16.75;9.98;;;2.40;99.90;;;;;;4984112;28;20030;-91
2023/01/22 12:31:47;;;;;;;16.67;9.93;;;2.50;99.90;;;;;;4984988;28;20041;-90
2023/01/22 12:34:33;;;;;;;15.40;10.20;;;2.50;99.90;;;;;;4999316;28;20030;-90
2023/01/22 12:37:00;;;;;;;14.82;9.65;;;2.50;99.90;;;;;;4990698;28;20030;-90
2023/01/22 12:39:47;;;;;;;16.83;10.23;;;2.50;99.90;;;;;;4989440;28;20046;-90
2023/01/22 12:42:34;;;;;;;15.75;9.90;;;2.60;99.90;;;;;;4981159;28;20034;-89
2023/01/22 12:45:21;;;;;;;14.55;9.52;;;2.60;99.90;;;;;;4984545;28;20033;-89
2023/01/22 12:48:05;;;;;;;14.93;9.38;;;2.60;99.90;;;;;;4981699;28;20097;-92
2023/01/22 12:50:31;;;;;;;18.15;10.00;;;2.60;99.90;;;;;;4995846;28;20050;-91
2023/01/22 12:53:04;;;;;;;15.73;9.68;;;2.60;99.90;;;;;;4993301;28;20061;-91
2023/01/22 12:55:42;;;;;;;17.98;10.48;;;2.60;99.90;;;;;;5008306;28;20116;-88
2023/01/22 13:01:34;;;;;;;14.68;9.25;;;2.60;99.90;;;;;;4999667;28;20037;-87
2023/01/22 13:04:06;;;;;;;18.95;10.88;;;2.60;99.90;;;;;;5005905;28;20105;-89
2023/01/22 13:06:33;;;;;;;15.93;10.00;;;2.60;99.90;;;;;;5006570;28;20030;-88
2023/01/22 13:08:59;;;;;;;15.63;11.30;;;2.60;99.90;;;;;;5008789;28;20037;-88